sensor_id;sensor_type;location;lat;lon;timestamp;P1;durP1;ratioP1;P2;durP2;ratioP2
24559;SDS011;12727;49.934;8.656;2022-09-13T00:00:42;8.07;;;4.75;;
24559;SDS011;12727;49.934;8.656;2022-09-13T00:03:10;6.45;;;4.85;;
24559;SDS011;12727;49.934;8.656;2022-09-13T00:05:37;5.03;;;4.13;;
24559;SDS011;12727;49.934;8.656;2022-09-13T00:08:03;6.65;;;4.63;;
24559;SDS011;12727;49.934;8.656;2022-09-13T00:10:29;7.45;;;4.68;;
24559;SDS011;12727;49.934;8.656;2022-09-13T00:12:58;8.32;;;5.03;;
24559;SDS011;12727;49.934;8.656;2022-09-13T00:15:24;5.53;;;4.93;;
24559;SDS011;12727;49.934;8.656;2022-09-13T00:17:50;9.80;;;4.80;;
24559;SDS011;12727;49.934;8.656;2022-09-13T00:20:15;5.95;;;4.80;;
24559;SDS011;12727;49.934;8.656;2022-09-13T00:22:41;6.25;;;4.72;;
24559;SDS011;12727;49.934;8.656;2022-09-13T00:25:07;9.10;;;4.97;;
24559;SDS011;12727;49.934;8.656;2022-09-13T00:27:33;6.95;;;4.93;;
24559;SDS011;12727;49.934;8.656;2022-09-13T00:29:59;7.47;;;5.30;;
24559;SDS011;12727;49.934;8.656;2022-09-13T00:32:25;6.40;;;4.90;;
24559;SDS011;12727;49.934;8.656;2022-09-13T00:34:51;9.52;;;5.18;;
24559;SDS011;12727;49.934;8.656;2022-09-13T00:37:17;5.32;;;4.75;;
24559;SDS011;12727;49.934;8.656;2022-09-13T00:39:42;11.73;;;5.65;;
24559;SDS011;12727;49.934;8.656;2022-09-13T00:42:09;9.27;;;5.20;;
24559;SDS011;12727;49.934;8.656;2022-09-13T00:44:54;7.30;;;5.30;;
24559;SDS011;12727;49.934;8.656;2022-09-13T00:47:23;6.35;;;4.95;;
24559;SDS011;12727;49.934;8.656;2022-09-13T00:50:23;9.18;;;5.22;;
24559;SDS011;12727;49.934;8.656;2022-09-13T00:53:00;7.53;;;4.95;;
24559;SDS011;12727;49.934;8.656;2022-09-13T00:58:00;7.93;;;5.07;;
24559;SDS011;12727;49.934;8.656;2022-09-13T01:00:33;5.53;;;4.82;;
24559;SDS011;12727;49.934;8.656;2022-09-13T01:03:03;6.00;;;4.60;;
24559;SDS011;12727;49.934;8.656;2022-09-13T01:05:33;8.90;;;5.37;;
24559;SDS011;12727;49.934;8.656;2022-09-13T01:08:02;8.32;;;5.10;;
24559;SDS011;12727;49.934;8.656;2022-09-13T01:10:44;6.18;;;4.80;;
24559;SDS011;12727;49.934;8.656;2022-09-13T01:13:11;7.68;;;5.20;;
24559;SDS011;12727;49.934;8.656;2022-09-13T01:15:43;12.60;;;5.80;;
24559;SDS011;12727;49.934;8.656;2022-09-13T01:18:09;9.25;;;5.07;;
24559;SDS011;12727;49.934;8.656;2022-09-13T01:27:30;7.50;;;5.00;;
24559;SDS011;12727;49.934;8.656;2022-09-13T01:32:38;7.88;;;4.93;;
24559;SDS011;12727;49.934;8.656;2022-09-13T01:35:30;7.63;;;4.88;;
24559;SDS011;12727;49.934;8.656;2022-09-13T01:41:04;8.90;;;4.75;;
24559;SDS011;12727;49.934;8.656;2022-09-13T01:43:55;7.15;;;4.60;;
24559;SDS011;12727;49.934;8.656;2022-09-13T01:49:09;9.82;;;5.80;;
24559;SDS011;12727;49.934;8.656;2022-09-13T01:52:01;6.60;;;5.38;;
24559;SDS011;12727;49.934;8.656;2022-09-13T01:54:39;8.88;;;5.13;;
24559;SDS011;12727;49.934;8.656;2022-09-13T02:00:09;7.70;;;5.00;;
24559;SDS011;12727;49.934;8.656;2022-09-13T02:08:34;10.82;;;5.72;;
24559;SDS011;12727;49.934;8.656;2022-09-13T02:11:08;9.70;;;5.60;;
24559;SDS011;12727;49.934;8.656;2022-09-13T02:13:45;10.77;;;5.72;;
24559;SDS011;12727;49.934;8.656;2022-09-13T02:16:34;6.50;;;5.05;;
24559;SDS011;12727;49.934;8.656;2022-09-13T02:19:30;9.82;;;5.68;;
24559;SDS011;12727;49.934;8.656;2022-09-13T02:22:05;7.00;;;5.30;;
24559;SDS011;12727;49.934;8.656;2022-09-13T02:24:33;7.57;;;4.80;;
24559;SDS011;12727;49.934;8.656;2022-09-13T02:27:04;5.60;;;4.88;;
24559;SDS011;12727;49.934;8.656;2022-09-13T02:29:35;8.00;;;5.03;;
24559;SDS011;12727;49.934;8.656;2022-09-13T02:34:42;6.82;;;5.07;;
24559;SDS011;12727;49.934;8.656;2022-09-13T02:37:12;6.88;;;5.20;;
24559;SDS011;12727;49.934;8.656;2022-09-13T02:39:40;9.60;;;5.05;;
24559;SDS011;12727;49.934;8.656;2022-09-13T02:45:08;10.73;;;5.10;;
24559;SDS011;12727;49.934;8.656;2022-09-13T02:47:38;6.40;;;4.68;;
24559;SDS011;12727;49.934;8.656;2022-09-13T02:55:40;11.02;;;5.28;;
24559;SDS011;12727;49.934;8.656;2022-09-13T02:58:11;7.65;;;4.50;;
24559;SDS011;12727;49.934;8.656;2022-09-13T03:00:47;9.60;;;5.25;;
24559;SDS011;12727;49.934;8.656;2022-09-13T03:03:13;6.97;;;5.32;;
24559;SDS011;12727;49.934;8.656;2022-09-13T03:05:40;11.07;;;5.78;;
24559;SDS011;12727;49.934;8.656;2022-09-13T03:08:07;7.22;;;5.03;;
24559;SDS011;12727;49.934;8.656;2022-09-13T03:11:25;9.93;;;5.93;;
24559;SDS011;12727;49.934;8.656;2022-09-13T03:32:07;10.38;;;7.00;;
24559;SDS011;12727;49.934;8.656;2022-09-13T03:38:00;8.05;;;6.50;;
24559;SDS011;12727;49.934;8.656;2022-09-13T03:40:48;8.32;;;6.68;;
24559;SDS011;12727;49.934;8.656;2022-09-13T03:43:30;10.18;;;6.55;;
24559;SDS011;12727;49.934;8.656;2022-09-13T03:46:03;10.65;;;6.50;;
24559;SDS011;12727;49.934;8.656;2022-09-13T03:48:34;8.27;;;6.20;;
24559;SDS011;12727;49.934;8.656;2022-09-13T03:51:01;8.93;;;6.28;;
24559;SDS011;12727;49.934;8.656;2022-09-13T03:53:29;7.00;;;5.35;;
24559;SDS011;12727;49.934;8.656;2022-09-13T03:55:56;9.40;;;5.60;;
24559;SDS011;12727;49.934;8.656;2022-09-13T03:58:23;8.18;;;5.25;;
24559;SDS011;12727;49.934;8.656;2022-09-13T04:00:50;8.52;;;5.80;;
24559;SDS011;12727;49.934;8.656;2022-09-13T04:03:18;8.07;;;5.45;;
24559;SDS011;12727;49.934;8.656;2022-09-13T04:05:44;8.23;;;5.72;;
24559;SDS011;12727;49.934;8.656;2022-09-13T04:08:10;8.25;;;6.10;;
24559;SDS011;12727;49.934;8.656;2022-09-13T04:10:36;8.50;;;5.72;;
24559;SDS011;12727;49.934;8.656;2022-09-13T04:13:02;12.57;;;7.13;;
24559;SDS011;12727;49.934;8.656;2022-09-13T04:15:29;7.93;;;5.75;;
24559;SDS011;12727;49.934;8.656;2022-09-13T04:17:55;9.00;;;5.70;;
24559;SDS011;12727;49.934;8.656;2022-09-13T04:20:21;10.18;;;5.55;;
24559;SDS011;12727;49.934;8.656;2022-09-13T04:22:53;7.57;;;5.63;;
24559;SDS011;12727;49.934;8.656;2022-09-13T04:25:20;7.57;;;5.50;;
24559;SDS011;12727;49.934;8.656;2022-09-13T04:27:46;11.85;;;5.47;;
24559;SDS011;12727;49.934;8.656;2022-09-13T04:30:12;8.63;;;5.15;;
24559;SDS011;12727;49.934;8.656;2022-09-13T04:32:38;9.52;;;5.85;;
24559;SDS011;12727;49.934;8.656;2022-09-13T04:35:03;11.50;;;6.32;;
24559;SDS011;12727;49.934;8.656;2022-09-13T04:37:33;11.20;;;7.50;;
24559;SDS011;12727;49.934;8.656;2022-09-13T04:39:58;7.45;;;5.65;;
24559;SDS011;12727;49.934;8.656;2022-09-13T04:42:24;7.38;;;5.20;;
24559;SDS011;12727;49.934;8.656;2022-09-13T04:44:49;10.07;;;5.93;;
24559;SDS011;12727;49.934;8.656;2022-09-13T04:47:15;9.63;;;5.03;;
24559;SDS011;12727;49.934;8.656;2022-09-13T04:49:40;7.07;;;4.75;;
24559;SDS011;12727;49.934;8.656;2022-09-13T04:52:06;6.93;;;4.90;;
24559;SDS011;12727;49.934;8.656;2022-09-13T04:54:32;7.65;;;5.57;;
24559;SDS011;12727;49.934;8.656;2022-09-13T04:56:58;9.13;;;4.78;;
24559;SDS011;12727;49.934;8.656;2022-09-13T04:59:23;7.57;;;4.90;;
24559;SDS011;12727;49.934;8.656;2022-09-13T05:01:49;8.55;;;5.60;;
24559;SDS011;12727;49.934;8.656;2022-09-13T05:04:15;6.88;;;5.10;;
24559;SDS011;12727;49.934;8.656;2022-09-13T05:06:40;9.52;;;5.45;;
24559;SDS011;12727;49.934;8.656;2022-09-13T05:09:06;6.95;;;5.40;;
24559;SDS011;12727;49.934;8.656;2022-09-13T05:11:35;10.52;;;5.70;;
24559;SDS011;12727;49.934;8.656;2022-09-13T05:14:01;7.32;;;5.45;;
24559;SDS011;12727;49.934;8.656;2022-09-13T05:16:28;7.15;;;5.28;;
24559;SDS011;12727;49.934;8.656;2022-09-13T05:18:54;6.50;;;5.18;;
24559;SDS011;12727;49.934;8.656;2022-09-13T05:21:21;11.15;;;5.25;;
24559;SDS011;12727;49.934;8.656;2022-09-13T05:23:48;8.98;;;4.88;;
24559;SDS011;12727;49.934;8.656;2022-09-13T05:26:14;7.38;;;4.60;;
24559;SDS011;12727;49.934;8.656;2022-09-13T05:28:40;7.78;;;4.72;;
24559;SDS011;12727;49.934;8.656;2022-09-13T05:31:07;5.78;;;4.75;;
24559;SDS011;12727;49.934;8.656;2022-09-13T05:33:37;13.35;;;5.07;;
24559;SDS011;12727;49.934;8.656;2022-09-13T05:36:03;9.23;;;5.88;;
24559;SDS011;12727;49.934;8.656;2022-09-13T05:38:29;9.98;;;5.30;;
24559;SDS011;12727;49.934;8.656;2022-09-13T05:40:56;14.98;;;5.93;;
24559;SDS011;12727;49.934;8.656;2022-09-13T05:43:25;14.32;;;6.22;;
24559;SDS011;12727;49.934;8.656;2022-09-13T05:45:58;12.82;;;5.80;;
24559;SDS011;12727;49.934;8.656;2022-09-13T05:48:25;6.25;;;5.50;;
24559;SDS011;12727;49.934;8.656;2022-09-13T05:50:51;9.07;;;5.43;;
24559;SDS011;12727;49.934;8.656;2022-09-13T05:53:16;11.02;;;5.85;;
24559;SDS011;12727;49.934;8.656;2022-09-13T05:55:42;7.85;;;5.28;;
24559;SDS011;12727;49.934;8.656;2022-09-13T05:58:07;9.15;;;5.50;;
24559;SDS011;12727;49.934;8.656;2022-09-13T06:00:33;7.38;;;5.65;;
24559;SDS011;12727;49.934;8.656;2022-09-13T06:02:58;8.38;;;5.15;;
24559;SDS011;12727;49.934;8.656;2022-09-13T06:05:24;7.65;;;5.35;;
24559;SDS011;12727;49.934;8.656;2022-09-13T06:07:50;9.05;;;5.18;;
24559;SDS011;12727;49.934;8.656;2022-09-13T06:10:15;7.72;;;4.70;;
24559;SDS011;12727;49.934;8.656;2022-09-13T06:12:41;9.65;;;5.22;;
24559;SDS011;12727;49.934;8.656;2022-09-13T06:15:07;7.43;;;5.15;;
24559;SDS011;12727;49.934;8.656;2022-09-13T06:17:33;8.02;;;5.10;;
24559;SDS011;12727;49.934;8.656;2022-09-13T06:19:59;11.25;;;5.25;;
24559;SDS011;12727;49.934;8.656;2022-09-13T06:22:24;14.10;;;4.97;;
24559;SDS011;12727;49.934;8.656;2022-09-13T06:24:56;12.20;;;5.93;;
24559;SDS011;12727;49.934;8.656;2022-09-13T06:27:23;12.70;;;5.85;;
24559;SDS011;12727;49.934;8.656;2022-09-13T06:29:48;11.73;;;6.10;;
24559;SDS011;12727;49.934;8.656;2022-09-13T06:32:14;10.43;;;6.53;;
24559;SDS011;12727;49.934;8.656;2022-09-13T06:34:39;9.20;;;5.97;;
24559;SDS011;12727;49.934;8.656;2022-09-13T06:37:05;8.85;;;6.45;;
24559;SDS011;12727;49.934;8.656;2022-09-13T06:39:30;10.32;;;6.30;;
24559;SDS011;12727;49.934;8.656;2022-09-13T06:41:58;10.80;;;5.97;;
24559;SDS011;12727;49.934;8.656;2022-09-13T06:44:23;10.52;;;7.40;;
24559;SDS011;12727;49.934;8.656;2022-09-13T06:46:49;12.25;;;7.65;;
24559;SDS011;12727;49.934;8.656;2022-09-13T06:49:15;14.48;;;8.15;;
24559;SDS011;12727;49.934;8.656;2022-09-13T06:51:41;12.00;;;7.53;;
24559;SDS011;12727;49.934;8.656;2022-09-13T06:54:06;9.45;;;7.32;;
24559;SDS011;12727;49.934;8.656;2022-09-13T06:56:33;8.35;;;6.57;;
24559;SDS011;12727;49.934;8.656;2022-09-13T06:59:02;11.88;;;7.75;;
24559;SDS011;12727;49.934;8.656;2022-09-13T07:01:30;16.80;;;7.30;;
24559;SDS011;12727;49.934;8.656;2022-09-13T07:04:02;10.85;;;7.05;;
24559;SDS011;12727;49.934;8.656;2022-09-13T07:06:28;15.88;;;7.88;;
24559;SDS011;12727;49.934;8.656;2022-09-13T07:08:56;12.18;;;8.05;;
24559;SDS011;12727;49.934;8.656;2022-09-13T07:11:23;11.93;;;8.70;;
24559;SDS011;12727;49.934;8.656;2022-09-13T07:13:51;15.30;;;9.32;;
24559;SDS011;12727;49.934;8.656;2022-09-13T07:16:18;15.75;;;9.98;;
24559;SDS011;12727;49.934;8.656;2022-09-13T07:18:52;12.70;;;8.05;;
24559;SDS011;12727;49.934;8.656;2022-09-13T07:21:19;13.65;;;9.75;;
24559;SDS011;12727;49.934;8.656;2022-09-13T07:23:46;13.90;;;9.80;;
24559;SDS011;12727;49.934;8.656;2022-09-13T07:26:11;14.52;;;11.40;;
24559;SDS011;12727;49.934;8.656;2022-09-13T07:28:41;16.23;;;11.77;;
24559;SDS011;12727;49.934;8.656;2022-09-13T07:31:18;14.90;;;11.23;;
24559;SDS011;12727;49.934;8.656;2022-09-13T07:33:46;15.60;;;10.38;;
24559;SDS011;12727;49.934;8.656;2022-09-13T07:36:12;17.30;;;13.07;;
24559;SDS011;12727;49.934;8.656;2022-09-13T07:38:39;19.08;;;13.48;;
24559;SDS011;12727;49.934;8.656;2022-09-13T07:41:09;18.33;;;13.70;;
24559;SDS011;12727;49.934;8.656;2022-09-13T07:43:36;21.27;;;13.80;;
24559;SDS011;12727;49.934;8.656;2022-09-13T07:46:03;19.30;;;14.20;;
24559;SDS011;12727;49.934;8.656;2022-09-13T07:48:34;20.45;;;14.07;;
24559;SDS011;12727;49.934;8.656;2022-09-13T07:51:11;17.90;;;13.75;;
24559;SDS011;12727;49.934;8.656;2022-09-13T07:53:39;17.67;;;12.55;;
24559;SDS011;12727;49.934;8.656;2022-09-13T07:56:07;14.75;;;11.93;;
24559;SDS011;12727;49.934;8.656;2022-09-13T07:58:34;16.83;;;12.75;;
24559;SDS011;12727;49.934;8.656;2022-09-13T08:03:35;16.08;;;12.57;;
24559;SDS011;12727;49.934;8.656;2022-09-13T08:06:01;15.38;;;11.57;;
24559;SDS011;12727;49.934;8.656;2022-09-13T08:08:28;14.70;;;11.70;;
24559;SDS011;12727;49.934;8.656;2022-09-13T08:10:55;16.38;;;10.52;;
24559;SDS011;12727;49.934;8.656;2022-09-13T08:13:21;16.05;;;11.50;;
24559;SDS011;12727;49.934;8.656;2022-09-13T08:15:47;12.38;;;10.38;;
24559;SDS011;12727;49.934;8.656;2022-09-13T08:18:13;14.23;;;11.00;;
24559;SDS011;12727;49.934;8.656;2022-09-13T08:20:40;16.65;;;10.73;;
24559;SDS011;12727;49.934;8.656;2022-09-13T08:23:06;14.32;;;10.55;;
24559;SDS011;12727;49.934;8.656;2022-09-13T08:25:34;19.02;;;10.95;;
24559;SDS011;12727;49.934;8.656;2022-09-13T08:28:14;13.75;;;9.95;;
24559;SDS011;12727;49.934;8.656;2022-09-13T08:30:41;13.77;;;9.80;;
24559;SDS011;12727;49.934;8.656;2022-09-13T08:33:07;13.98;;;9.60;;
24559;SDS011;12727;49.934;8.656;2022-09-13T08:35:35;11.88;;;8.25;;
24559;SDS011;12727;49.934;8.656;2022-09-13T08:38:02;13.85;;;9.70;;
24559;SDS011;12727;49.934;8.656;2022-09-13T08:40:42;11.43;;;9.52;;
24559;SDS011;12727;49.934;8.656;2022-09-13T08:43:22;13.18;;;10.13;;
24559;SDS011;12727;49.934;8.656;2022-09-13T08:46:32;13.00;;;9.52;;
24559;SDS011;12727;49.934;8.656;2022-09-13T08:48:45;11.70;;;8.35;;
24559;SDS011;12727;49.934;8.656;2022-09-13T08:53:56;13.20;;;9.48;;
24559;SDS011;12727;49.934;8.656;2022-09-13T08:56:25;13.60;;;9.30;;
24559;SDS011;12727;49.934;8.656;2022-09-13T09:02:43;17.33;;;9.70;;
24559;SDS011;12727;49.934;8.656;2022-09-13T09:05:18;14.60;;;9.73;;
24559;SDS011;12727;49.934;8.656;2022-09-13T09:07:53;13.77;;;9.65;;
24559;SDS011;12727;49.934;8.656;2022-09-13T09:10:28;13.05;;;9.70;;
24559;SDS011;12727;49.934;8.656;2022-09-13T09:13:17;12.40;;;9.35;;
24559;SDS011;12727;49.934;8.656;2022-09-13T09:16:38;12.20;;;9.40;;
24559;SDS011;12727;49.934;8.656;2022-09-13T09:19:25;13.35;;;9.15;;
24559;SDS011;12727;49.934;8.656;2022-09-13T09:21:54;12.98;;;9.63;;
24559;SDS011;12727;49.934;8.656;2022-09-13T09:24:22;14.50;;;9.63;;
24559;SDS011;12727;49.934;8.656;2022-09-13T09:26:49;12.00;;;10.07;;
24559;SDS011;12727;49.934;8.656;2022-09-13T09:29:19;17.55;;;11.30;;
24559;SDS011;12727;49.934;8.656;2022-09-13T09:34:49;13.18;;;9.90;;
24559;SDS011;12727;49.934;8.656;2022-09-13T09:37:36;13.80;;;10.35;;
24559;SDS011;12727;49.934;8.656;2022-09-13T09:40:04;15.07;;;9.75;;
24559;SDS011;12727;49.934;8.656;2022-09-13T09:42:37;13.00;;;10.93;;
24559;SDS011;12727;49.934;8.656;2022-09-13T09:47:47;11.88;;;10.05;;
24559;SDS011;12727;49.934;8.656;2022-09-13T09:50:18;16.23;;;9.55;;
24559;SDS011;12727;49.934;8.656;2022-09-13T09:55:36;16.17;;;10.82;;
24559;SDS011;12727;49.934;8.656;2022-09-13T09:58:10;13.82;;;10.48;;
24559;SDS011;12727;49.934;8.656;2022-09-13T10:03:20;15.25;;;10.20;;
24559;SDS011;12727;49.934;8.656;2022-09-13T10:05:49;19.75;;;9.70;;
24559;SDS011;12727;49.934;8.656;2022-09-13T10:08:25;13.95;;;9.40;;
24559;SDS011;12727;49.934;8.656;2022-09-13T10:10:55;15.82;;;11.73;;
24559;SDS011;12727;49.934;8.656;2022-09-13T10:13:23;16.52;;;11.95;;
24559;SDS011;12727;49.934;8.656;2022-09-13T10:18:19;11.75;;;10.27;;
24559;SDS011;12727;49.934;8.656;2022-09-13T10:23:32;12.32;;;10.35;;
24559;SDS011;12727;49.934;8.656;2022-09-13T10:26:03;14.35;;;12.25;;
24559;SDS011;12727;49.934;8.656;2022-09-13T10:28:55;13.02;;;10.20;;
24559;SDS011;12727;49.934;8.656;2022-09-13T10:31:31;19.25;;;12.25;;
24559;SDS011;12727;49.934;8.656;2022-09-13T10:36:43;13.80;;;10.35;;
24559;SDS011;12727;49.934;8.656;2022-09-13T10:39:24;14.57;;;11.80;;
24559;SDS011;12727;49.934;8.656;2022-09-13T10:44:31;14.98;;;11.73;;
24559;SDS011;12727;49.934;8.656;2022-09-13T10:47:09;15.85;;;12.27;;
24559;SDS011;12727;49.934;8.656;2022-09-13T10:49:50;12.20;;;10.82;;
24559;SDS011;12727;49.934;8.656;2022-09-13T10:52:33;13.50;;;10.10;;
24559;SDS011;12727;49.934;8.656;2022-09-13T10:57:47;16.30;;;11.77;;
24559;SDS011;12727;49.934;8.656;2022-09-13T11:00:15;16.70;;;11.13;;
24559;SDS011;12727;49.934;8.656;2022-09-13T11:14:03;16.88;;;13.10;;
24559;SDS011;12727;49.934;8.656;2022-09-13T11:19:21;16.67;;;13.65;;
24559;SDS011;12727;49.934;8.656;2022-09-13T11:22:16;16.92;;;12.50;;
24559;SDS011;12727;49.934;8.656;2022-09-13T11:43:35;20.05;;;13.10;;
24559;SDS011;12727;49.934;8.656;2022-09-13T11:46:10;19.70;;;12.95;;
24559;SDS011;12727;49.934;8.656;2022-09-13T11:51:46;16.98;;;12.60;;
24559;SDS011;12727;49.934;8.656;2022-09-13T11:54:25;19.73;;;13.15;;
24559;SDS011;12727;49.934;8.656;2022-09-13T11:57:15;13.68;;;10.57;;
24559;SDS011;12727;49.934;8.656;2022-09-13T11:59:50;15.80;;;11.40;;
24559;SDS011;12727;49.934;8.656;2022-09-13T12:05:04;18.80;;;13.88;;
24559;SDS011;12727;49.934;8.656;2022-09-13T12:07:44;18.27;;;14.13;;
24559;SDS011;12727;49.934;8.656;2022-09-13T12:12:45;16.60;;;12.70;;
24559;SDS011;12727;49.934;8.656;2022-09-13T12:18:12;21.90;;;13.88;;
24559;SDS011;12727;49.934;8.656;2022-09-13T12:20:43;17.58;;;12.07;;
24559;SDS011;12727;49.934;8.656;2022-09-13T12:23:57;19.13;;;13.55;;
24559;SDS011;12727;49.934;8.656;2022-09-13T12:29:38;16.15;;;12.88;;
24559;SDS011;12727;49.934;8.656;2022-09-13T12:32:08;18.92;;;13.85;;
24559;SDS011;12727;49.934;8.656;2022-09-13T12:37:21;17.58;;;12.70;;
24559;SDS011;12727;49.934;8.656;2022-09-13T12:51:29;17.95;;;13.70;;
24559;SDS011;12727;49.934;8.656;2022-09-13T13:03:14;16.50;;;12.93;;
24559;SDS011;12727;49.934;8.656;2022-09-13T13:05:25;17.05;;;13.40;;
24559;SDS011;12727;49.934;8.656;2022-09-13T13:08:01;19.77;;;13.15;;
24559;SDS011;12727;49.934;8.656;2022-09-13T13:10:41;20.08;;;12.13;;
24559;SDS011;12727;49.934;8.656;2022-09-13T13:13:11;21.10;;;13.23;;
24559;SDS011;12727;49.934;8.656;2022-09-13T13:18:21;15.20;;;12.05;;
24559;SDS011;12727;49.934;8.656;2022-09-13T13:33:48;18.77;;;12.27;;
24559;SDS011;12727;49.934;8.656;2022-09-13T13:36:24;15.07;;;11.50;;
24559;SDS011;12727;49.934;8.656;2022-09-13T13:38:53;19.00;;;12.43;;
24559;SDS011;12727;49.934;8.656;2022-09-13T13:44:54;16.73;;;12.15;;
24559;SDS011;12727;49.934;8.656;2022-09-13T13:46:47;19.20;;;12.60;;
24559;SDS011;12727;49.934;8.656;2022-09-13T13:55:05;14.82;;;11.50;;
24559;SDS011;12727;49.934;8.656;2022-09-13T13:58:09;14.70;;;11.88;;
24559;SDS011;12727;49.934;8.656;2022-09-13T14:01:00;13.27;;;11.07;;
24559;SDS011;12727;49.934;8.656;2022-09-13T14:09:19;18.55;;;13.27;;
24559;SDS011;12727;49.934;8.656;2022-09-13T14:12:24;20.30;;;12.90;;
24559;SDS011;12727;49.934;8.656;2022-09-13T14:15:22;16.27;;;13.07;;
24559;SDS011;12727;49.934;8.656;2022-09-13T14:18:20;16.30;;;13.07;;
24559;SDS011;12727;49.934;8.656;2022-09-13T14:21:24;18.75;;;13.80;;
24559;SDS011;12727;49.934;8.656;2022-09-13T14:24:06;18.00;;;13.00;;
24559;SDS011;12727;49.934;8.656;2022-09-13T14:26:32;18.27;;;12.75;;
24559;SDS011;12727;49.934;8.656;2022-09-13T14:28:57;20.85;;;13.65;;
24559;SDS011;12727;49.934;8.656;2022-09-13T14:31:23;17.10;;;13.65;;
24559;SDS011;12727;49.934;8.656;2022-09-13T14:33:48;18.55;;;13.02;;
24559;SDS011;12727;49.934;8.656;2022-09-13T14:36:21;18.20;;;13.52;;
24559;SDS011;12727;49.934;8.656;2022-09-13T14:38:48;14.90;;;12.25;;
24559;SDS011;12727;49.934;8.656;2022-09-13T14:41:31;17.30;;;13.40;;
24559;SDS011;12727;49.934;8.656;2022-09-13T14:44:18;16.80;;;13.52;;
24559;SDS011;12727;49.934;8.656;2022-09-13T14:46:46;19.58;;;13.95;;
24559;SDS011;12727;49.934;8.656;2022-09-13T14:51:51;21.08;;;12.75;;
24559;SDS011;12727;49.934;8.656;2022-09-13T14:54:30;16.40;;;11.88;;
24559;SDS011;12727;49.934;8.656;2022-09-13T14:56:58;14.30;;;12.10;;
24559;SDS011;12727;49.934;8.656;2022-09-13T14:59:33;14.43;;;11.45;;
24559;SDS011;12727;49.934;8.656;2022-09-13T15:02:18;15.82;;;11.20;;
24559;SDS011;12727;49.934;8.656;2022-09-13T15:04:50;14.85;;;10.00;;
24559;SDS011;12727;49.934;8.656;2022-09-13T15:07:22;12.23;;;9.48;;
24559;SDS011;12727;49.934;8.656;2022-09-13T15:09:56;15.35;;;10.13;;
24559;SDS011;12727;49.934;8.656;2022-09-13T15:12:30;15.57;;;10.98;;
24559;SDS011;12727;49.934;8.656;2022-09-13T15:17:50;16.60;;;10.73;;
24559;SDS011;12727;49.934;8.656;2022-09-13T15:20:23;13.52;;;9.43;;
24559;SDS011;12727;49.934;8.656;2022-09-13T15:22:51;12.98;;;8.75;;
24559;SDS011;12727;49.934;8.656;2022-09-13T15:25:25;12.70;;;9.55;;
24559;SDS011;12727;49.934;8.656;2022-09-13T15:27:52;15.05;;;9.15;;
24559;SDS011;12727;49.934;8.656;2022-09-13T15:30:21;12.50;;;9.70;;
24559;SDS011;12727;49.934;8.656;2022-09-13T15:33:02;14.68;;;10.77;;
24559;SDS011;12727;49.934;8.656;2022-09-13T15:35:30;13.00;;;10.45;;
24559;SDS011;12727;49.934;8.656;2022-09-13T15:38:01;15.02;;;10.88;;
24559;SDS011;12727;49.934;8.656;2022-09-13T15:40:41;18.33;;;10.55;;
24559;SDS011;12727;49.934;8.656;2022-09-13T15:43:08;13.10;;;11.25;;
24559;SDS011;12727;49.934;8.656;2022-09-13T15:45:34;13.77;;;9.68;;
24559;SDS011;12727;49.934;8.656;2022-09-13T15:47:59;12.70;;;9.43;;
24559;SDS011;12727;49.934;8.656;2022-09-13T15:50:29;12.23;;;9.95;;
24559;SDS011;12727;49.934;8.656;2022-09-13T15:52:57;15.77;;;10.00;;
24559;SDS011;12727;49.934;8.656;2022-09-13T15:55:24;11.60;;;9.60;;
24559;SDS011;12727;49.934;8.656;2022-09-13T15:57:50;14.48;;;10.70;;
24559;SDS011;12727;49.934;8.656;2022-09-13T16:00:21;14.30;;;10.02;;
24559;SDS011;12727;49.934;8.656;2022-09-13T16:02:48;15.98;;;10.55;;
24559;SDS011;12727;49.934;8.656;2022-09-13T16:05:15;16.40;;;11.05;;
24559;SDS011;12727;49.934;8.656;2022-09-13T16:07:41;16.83;;;11.82;;
24559;SDS011;12727;49.934;8.656;2022-09-13T16:10:26;15.68;;;11.43;;
24559;SDS011;12727;49.934;8.656;2022-09-13T16:12:52;16.40;;;10.23;;
24559;SDS011;12727;49.934;8.656;2022-09-13T16:15:18;12.13;;;10.18;;
24559;SDS011;12727;49.934;8.656;2022-09-13T16:17:44;15.80;;;9.02;;
24559;SDS011;12727;49.934;8.656;2022-09-13T16:20:11;16.25;;;9.60;;
24559;SDS011;12727;49.934;8.656;2022-09-13T16:22:40;11.45;;;9.38;;
24559;SDS011;12727;49.934;8.656;2022-09-13T16:25:06;11.90;;;8.90;;
24559;SDS011;12727;49.934;8.656;2022-09-13T16:27:33;9.48;;;8.48;;
24559;SDS011;12727;49.934;8.656;2022-09-13T16:29:59;11.10;;;8.20;;
24559;SDS011;12727;49.934;8.656;2022-09-13T16:32:25;11.90;;;8.70;;
24559;SDS011;12727;49.934;8.656;2022-09-13T16:34:50;10.68;;;8.20;;
24559;SDS011;12727;49.934;8.656;2022-09-13T16:37:17;9.48;;;8.10;;
24559;SDS011;12727;49.934;8.656;2022-09-13T16:39:43;14.20;;;7.95;;
24559;SDS011;12727;49.934;8.656;2022-09-13T16:42:10;13.40;;;7.18;;
24559;SDS011;12727;49.934;8.656;2022-09-13T16:44:36;10.00;;;7.32;;
24559;SDS011;12727;49.934;8.656;2022-09-13T16:47:02;10.13;;;7.60;;
24559;SDS011;12727;49.934;8.656;2022-09-13T16:49:28;9.82;;;7.57;;
24559;SDS011;12727;49.934;8.656;2022-09-13T16:51:54;11.15;;;7.30;;
24559;SDS011;12727;49.934;8.656;2022-09-13T16:54:23;9.65;;;7.43;;
24559;SDS011;12727;49.934;8.656;2022-09-13T16:56:54;8.48;;;7.45;;
24559;SDS011;12727;49.934;8.656;2022-09-13T16:59:19;11.57;;;7.30;;
24559;SDS011;12727;49.934;8.656;2022-09-13T17:01:45;11.43;;;7.43;;
24559;SDS011;12727;49.934;8.656;2022-09-13T17:04:13;11.13;;;6.53;;
24559;SDS011;12727;49.934;8.656;2022-09-13T17:06:40;9.82;;;7.22;;
24559;SDS011;12727;49.934;8.656;2022-09-13T17:09:05;9.15;;;6.80;;
24559;SDS011;12727;49.934;8.656;2022-09-13T17:11:33;9.63;;;7.25;;
24559;SDS011;12727;49.934;8.656;2022-09-13T17:14:04;13.25;;;7.22;;
24559;SDS011;12727;49.934;8.656;2022-09-13T17:19:02;10.32;;;7.25;;
24559;SDS011;12727;49.934;8.656;2022-09-13T17:21:30;10.05;;;6.68;;
24559;SDS011;12727;49.934;8.656;2022-09-13T17:23:57;9.95;;;6.50;;
24559;SDS011;12727;49.934;8.656;2022-09-13T17:26:24;8.77;;;6.93;;
24559;SDS011;12727;49.934;8.656;2022-09-13T17:28:50;11.13;;;6.65;;
24559;SDS011;12727;49.934;8.656;2022-09-13T17:31:16;10.25;;;7.20;;
24559;SDS011;12727;49.934;8.656;2022-09-13T17:33:42;9.73;;;7.03;;
24559;SDS011;12727;49.934;8.656;2022-09-13T17:36:09;9.25;;;7.63;;
24559;SDS011;12727;49.934;8.656;2022-09-13T17:38:37;9.02;;;7.50;;
24559;SDS011;12727;49.934;8.656;2022-09-13T17:41:05;11.23;;;7.97;;
24559;SDS011;12727;49.934;8.656;2022-09-13T17:43:35;11.80;;;7.20;;
24559;SDS011;12727;49.934;8.656;2022-09-13T17:46:02;11.65;;;7.57;;
24559;SDS011;12727;49.934;8.656;2022-09-13T17:48:32;10.55;;;7.32;;
24559;SDS011;12727;49.934;8.656;2022-09-13T17:51:20;8.35;;;7.03;;
24559;SDS011;12727;49.934;8.656;2022-09-13T17:53:47;9.85;;;7.25;;
24559;SDS011;12727;49.934;8.656;2022-09-13T17:56:15;11.95;;;7.82;;
24559;SDS011;12727;49.934;8.656;2022-09-13T17:58:45;11.05;;;8.38;;
24559;SDS011;12727;49.934;8.656;2022-09-13T18:01:11;11.02;;;8.13;;
24559;SDS011;12727;49.934;8.656;2022-09-13T18:03:37;14.43;;;9.13;;
24559;SDS011;12727;49.934;8.656;2022-09-13T18:06:03;14.88;;;9.27;;
24559;SDS011;12727;49.934;8.656;2022-09-13T18:08:31;12.30;;;10.00;;
24559;SDS011;12727;49.934;8.656;2022-09-13T18:11:01;13.25;;;9.60;;
24559;SDS011;12727;49.934;8.656;2022-09-13T18:13:33;11.18;;;8.95;;
24559;SDS011;12727;49.934;8.656;2022-09-13T18:16:00;11.35;;;8.52;;
24559;SDS011;12727;49.934;8.656;2022-09-13T18:18:29;12.07;;;8.35;;